sensor_id;sensor_type;location;lat;lon;timestamp;P1;durP1;ratioP1;P2;durP2;ratioP2
6513;SDS011;3290;47.716;9.070;2023-10-13T00:01:42;11.20;;;4.37;;
6513;SDS011;3290;47.716;9.070;2023-10-13T00:04:08;10.07;;;3.93;;
6513;SDS011;3290;47.716;9.070;2023-10-13T00:06:33;7.53;;;3.57;;
6513;SDS011;3290;47.716;9.070;2023-10-13T00:08:58;8.47;;;4.20;;
6513;SDS011;3290;47.716;9.070;2023-10-13T00:11:25;14.03;;;4.10;;
6513;SDS011;3290;47.716;9.070;2023-10-13T00:13:52;8.10;;;3.07;;
6513;SDS011;3290;47.716;9.070;2023-10-13T00:16:19;5.60;;;3.13;;
6513;SDS011;3290;47.716;9.070;2023-10-13T00:18:52;5.50;;;3.33;;
6513;SDS011;3290;47.716;9.070;2023-10-13T00:21:22;7.83;;;3.80;;
6513;SDS011;3290;47.716;9.070;2023-10-13T00:23:58;10.23;;;3.60;;
6513;SDS011;3290;47.716;9.070;2023-10-13T00:26:26;10.00;;;4.30;;
6513;SDS011;3290;47.716;9.070;2023-10-13T00:28:56;9.07;;;4.37;;
6513;SDS011;3290;47.716;9.070;2023-10-13T00:31:39;8.30;;;3.60;;
6513;SDS011;3290;47.716;9.070;2023-10-13T00:34:11;6.43;;;3.30;;
6513;SDS011;3290;47.716;9.070;2023-10-13T00:36:43;7.77;;;3.77;;
6513;SDS011;3290;47.716;9.070;2023-10-13T00:39:32;8.37;;;3.87;;
6513;SDS011;3290;47.716;9.070;2023-10-13T00:42:01;12.70;;;3.60;;
6513;SDS011;3290;47.716;9.070;2023-10-13T00:44:33;7.63;;;3.50;;
6513;SDS011;3290;47.716;9.070;2023-10-13T00:47:10;6.63;;;3.60;;
6513;SDS011;3290;47.716;9.070;2023-10-13T00:49:41;7.07;;;3.60;;
6513;SDS011;3290;47.716;9.070;2023-10-13T00:52:12;10.40;;;3.80;;
6513;SDS011;3290;47.716;9.070;2023-10-13T00:54:37;10.70;;;3.63;;
6513;SDS011;3290;47.716;9.070;2023-10-13T00:57:03;10.17;;;3.93;;
6513;SDS011;3290;47.716;9.070;2023-10-13T00:59:32;13.57;;;3.43;;
6513;SDS011;3290;47.716;9.070;2023-10-13T01:02:01;12.43;;;3.93;;
6513;SDS011;3290;47.716;9.070;2023-10-13T01:04:46;14.10;;;4.40;;
6513;SDS011;3290;47.716;9.070;2023-10-13T01:07:13;8.23;;;3.70;;
6513;SDS011;3290;47.716;9.070;2023-10-13T01:09:41;8.50;;;4.00;;
6513;SDS011;3290;47.716;9.070;2023-10-13T01:12:07;5.40;;;3.47;;
6513;SDS011;3290;47.716;9.070;2023-10-13T01:14:34;7.10;;;3.60;;
6513;SDS011;3290;47.716;9.070;2023-10-13T01:17:00;6.30;;;3.60;;
6513;SDS011;3290;47.716;9.070;2023-10-13T01:19:26;14.10;;;4.70;;
6513;SDS011;3290;47.716;9.070;2023-10-13T01:21:53;14.03;;;3.40;;
6513;SDS011;3290;47.716;9.070;2023-10-13T01:24:27;11.33;;;4.20;;
6513;SDS011;3290;47.716;9.070;2023-10-13T01:26:56;9.30;;;4.57;;
6513;SDS011;3290;47.716;9.070;2023-10-13T01:29:22;7.20;;;3.90;;
6513;SDS011;3290;47.716;9.070;2023-10-13T01:31:54;9.47;;;3.60;;
6513;SDS011;3290;47.716;9.070;2023-10-13T01:34:19;5.60;;;3.40;;
6513;SDS011;3290;47.716;9.070;2023-10-13T01:36:56;10.10;;;3.43;;
6513;SDS011;3290;47.716;9.070;2023-10-13T01:39:22;9.97;;;3.80;;
6513;SDS011;3290;47.716;9.070;2023-10-13T01:41:54;6.63;;;3.37;;
6513;SDS011;3290;47.716;9.070;2023-10-13T01:44:23;9.20;;;4.17;;
6513;SDS011;3290;47.716;9.070;2023-10-13T01:46:49;6.47;;;3.40;;
6513;SDS011;3290;47.716;9.070;2023-10-13T01:49:16;7.00;;;4.13;;
6513;SDS011;3290;47.716;9.070;2023-10-13T01:51:41;7.50;;;3.77;;
6513;SDS011;3290;47.716;9.070;2023-10-13T01:54:07;5.53;;;3.67;;
6513;SDS011;3290;47.716;9.070;2023-10-13T01:56:37;13.87;;;4.10;;
6513;SDS011;3290;47.716;9.070;2023-10-13T01:59:07;7.33;;;3.90;;
6513;SDS011;3290;47.716;9.070;2023-10-13T02:01:34;8.37;;;3.43;;
6513;SDS011;3290;47.716;9.070;2023-10-13T02:04:00;13.53;;;4.17;;
6513;SDS011;3290;47.716;9.070;2023-10-13T02:06:28;13.70;;;4.00;;
6513;SDS011;3290;47.716;9.070;2023-10-13T02:09:01;9.23;;;4.33;;
6513;SDS011;3290;47.716;9.070;2023-10-13T02:11:36;10.87;;;4.60;;
6513;SDS011;3290;47.716;9.070;2023-10-13T02:14:05;7.83;;;3.90;;
6513;SDS011;3290;47.716;9.070;2023-10-13T02:16:30;7.57;;;4.40;;
6513;SDS011;3290;47.716;9.070;2023-10-13T02:18:56;9.83;;;3.80;;
6513;SDS011;3290;47.716;9.070;2023-10-13T02:21:33;10.90;;;4.30;;
6513;SDS011;3290;47.716;9.070;2023-10-13T02:24:05;4.63;;;4.00;;
6513;SDS011;3290;47.716;9.070;2023-10-13T02:26:37;13.30;;;4.00;;
6513;SDS011;3290;47.716;9.070;2023-10-13T02:29:06;10.20;;;4.00;;
6513;SDS011;3290;47.716;9.070;2023-10-13T02:31:39;5.00;;;3.60;;
6513;SDS011;3290;47.716;9.070;2023-10-13T02:34:06;9.87;;;4.23;;
6513;SDS011;3290;47.716;9.070;2023-10-13T02:36:35;10.57;;;5.23;;
6513;SDS011;3290;47.716;9.070;2023-10-13T02:39:04;14.17;;;5.37;;
6513;SDS011;3290;47.716;9.070;2023-10-13T02:41:33;7.70;;;3.90;;
6513;SDS011;3290;47.716;9.070;2023-10-13T02:44:02;8.40;;;4.80;;
6513;SDS011;3290;47.716;9.070;2023-10-13T02:46:32;10.60;;;4.50;;
6513;SDS011;3290;47.716;9.070;2023-10-13T02:49:01;8.33;;;3.70;;
6513;SDS011;3290;47.716;9.070;2023-10-13T02:51:35;11.20;;;4.27;;
6513;SDS011;3290;47.716;9.070;2023-10-13T02:54:01;9.27;;;4.40;;
6513;SDS011;3290;47.716;9.070;2023-10-13T02:56:35;5.90;;;3.87;;
6513;SDS011;3290;47.716;9.070;2023-10-13T02:59:01;10.60;;;3.50;;
6513;SDS011;3290;47.716;9.070;2023-10-13T03:01:33;6.40;;;3.53;;
6513;SDS011;3290;47.716;9.070;2023-10-13T03:04:03;5.73;;;3.80;;
6513;SDS011;3290;47.716;9.070;2023-10-13T03:06:33;5.43;;;3.70;;
6513;SDS011;3290;47.716;9.070;2023-10-13T03:08:59;6.63;;;3.73;;
6513;SDS011;3290;47.716;9.070;2023-10-13T03:11:46;5.93;;;3.70;;
6513;SDS011;3290;47.716;9.070;2023-10-13T03:14:16;13.00;;;4.43;;
6513;SDS011;3290;47.716;9.070;2023-10-13T03:16:58;19.73;;;4.13;;
6513;SDS011;3290;47.716;9.070;2023-10-13T03:19:31;18.63;;;4.57;;
6513;SDS011;3290;47.716;9.070;2023-10-13T03:22:02;9.50;;;4.20;;
6513;SDS011;3290;47.716;9.070;2023-10-13T03:24:38;6.60;;;3.93;;
6513;SDS011;3290;47.716;9.070;2023-10-13T03:27:10;12.73;;;4.23;;
6513;SDS011;3290;47.716;9.070;2023-10-13T03:29:42;6.07;;;3.53;;
6513;SDS011;3290;47.716;9.070;2023-10-13T03:32:13;8.23;;;4.30;;
6513;SDS011;3290;47.716;9.070;2023-10-13T03:34:46;9.80;;;3.87;;
6513;SDS011;3290;47.716;9.070;2023-10-13T03:37:39;6.17;;;3.70;;
6513;SDS011;3290;47.716;9.070;2023-10-13T03:40:05;6.00;;;4.00;;
6513;SDS011;3290;47.716;9.070;2023-10-13T03:42:40;8.77;;;4.30;;
6513;SDS011;3290;47.716;9.070;2023-10-13T03:45:06;8.50;;;4.33;;
6513;SDS011;3290;47.716;9.070;2023-10-13T03:47:35;11.93;;;4.70;;
6513;SDS011;3290;47.716;9.070;2023-10-13T03:50:03;11.47;;;4.40;;
6513;SDS011;3290;47.716;9.070;2023-10-13T03:52:47;8.80;;;3.80;;
6513;SDS011;3290;47.716;9.070;2023-10-13T03:55:13;17.83;;;6.00;;
6513;SDS011;3290;47.716;9.070;2023-10-13T03:57:42;11.60;;;4.77;;
6513;SDS011;3290;47.716;9.070;2023-10-13T04:00:10;6.47;;;4.50;;
6513;SDS011;3290;47.716;9.070;2023-10-13T04:02:46;9.87;;;4.40;;
6513;SDS011;3290;47.716;9.070;2023-10-13T04:05:17;8.70;;;4.80;;
6513;SDS011;3290;47.716;9.070;2023-10-13T04:08:02;10.93;;;4.50;;
6513;SDS011;3290;47.716;9.070;2023-10-13T04:11:00;18.07;;;5.10;;
6513;SDS011;3290;47.716;9.070;2023-10-13T04:13:43;14.23;;;4.77;;
6513;SDS011;3290;47.716;9.070;2023-10-13T04:16:35;10.50;;;4.80;;
6513;SDS011;3290;47.716;9.070;2023-10-13T04:19:01;9.10;;;4.30;;
6513;SDS011;3290;47.716;9.070;2023-10-13T04:21:27;11.63;;;4.53;;
6513;SDS011;3290;47.716;9.070;2023-10-13T04:24:12;9.13;;;4.60;;
6513;SDS011;3290;47.716;9.070;2023-10-13T04:26:49;5.43;;;3.93;;
6513;SDS011;3290;47.716;9.070;2023-10-13T04:29:34;13.90;;;4.23;;
6513;SDS011;3290;47.716;9.070;2023-10-13T04:32:12;6.80;;;4.60;;
6513;SDS011;3290;47.716;9.070;2023-10-13T04:34:53;10.60;;;4.90;;
6513;SDS011;3290;47.716;9.070;2023-10-13T04:37:23;14.73;;;4.67;;
6513;SDS011;3290;47.716;9.070;2023-10-13T04:39:55;9.37;;;5.20;;
6513;SDS011;3290;47.716;9.070;2023-10-13T04:42:39;10.50;;;4.43;;
6513;SDS011;3290;47.716;9.070;2023-10-13T04:45:14;8.80;;;4.30;;
6513;SDS011;3290;47.716;9.070;2023-10-13T04:48:03;10.80;;;4.60;;
6513;SDS011;3290;47.716;9.070;2023-10-13T04:50:47;12.93;;;5.10;;
6513;SDS011;3290;47.716;9.070;2023-10-13T04:53:15;7.30;;;4.80;;
6513;SDS011;3290;47.716;9.070;2023-10-13T04:56:20;8.87;;;4.53;;
6513;SDS011;3290;47.716;9.070;2023-10-13T04:59:05;9.90;;;4.40;;
6513;SDS011;3290;47.716;9.070;2023-10-13T05:01:49;12.63;;;6.70;;
6513;SDS011;3290;47.716;9.070;2023-10-13T05:04:14;13.87;;;5.47;;
6513;SDS011;3290;47.716;9.070;2023-10-13T05:06:39;11.17;;;4.60;;
6513;SDS011;3290;47.716;9.070;2023-10-13T05:09:11;12.50;;;4.83;;
6513;SDS011;3290;47.716;9.070;2023-10-13T05:11:56;11.63;;;4.53;;
6513;SDS011;3290;47.716;9.070;2023-10-13T05:14:40;12.17;;;5.47;;
6513;SDS011;3290;47.716;9.070;2023-10-13T05:17:24;13.30;;;5.50;;
6513;SDS011;3290;47.716;9.070;2023-10-13T05:20:12;10.17;;;4.50;;
6513;SDS011;3290;47.716;9.070;2023-10-13T05:22:56;8.00;;;4.43;;
6513;SDS011;3290;47.716;9.070;2023-10-13T05:25:40;12.10;;;5.73;;
6513;SDS011;3290;47.716;9.070;2023-10-13T05:28:24;12.80;;;5.80;;
6513;SDS011;3290;47.716;9.070;2023-10-13T05:31:08;20.50;;;9.47;;
6513;SDS011;3290;47.716;9.070;2023-10-13T05:34:05;20.40;;;9.63;;
6513;SDS011;3290;47.716;9.070;2023-10-13T05:36:49;15.40;;;7.27;;
6513;SDS011;3290;47.716;9.070;2023-10-13T05:39:33;17.27;;;7.40;;
6513;SDS011;3290;47.716;9.070;2023-10-13T05:42:17;14.37;;;6.83;;
6513;SDS011;3290;47.716;9.070;2023-10-13T05:45:01;21.47;;;6.77;;
6513;SDS011;3290;47.716;9.070;2023-10-13T05:47:41;16.37;;;7.07;;
6513;SDS011;3290;47.716;9.070;2023-10-13T05:50:07;13.10;;;6.10;;
6513;SDS011;3290;47.716;9.070;2023-10-13T05:52:48;16.60;;;6.40;;
6513;SDS011;3290;47.716;9.070;2023-10-13T05:55:21;14.43;;;6.30;;
6513;SDS011;3290;47.716;9.070;2023-10-13T05:58:08;15.00;;;5.87;;
6513;SDS011;3290;47.716;9.070;2023-10-13T06:00:53;10.83;;;6.23;;
6513;SDS011;3290;47.716;9.070;2023-10-13T06:03:37;11.40;;;6.30;;
6513;SDS011;3290;47.716;9.070;2023-10-13T06:06:21;17.17;;;5.87;;
6513;SDS011;3290;47.716;9.070;2023-10-13T06:09:05;16.60;;;6.10;;
6513;SDS011;3290;47.716;9.070;2023-10-13T06:11:49;14.50;;;7.57;;
6513;SDS011;3290;47.716;9.070;2023-10-13T06:14:32;16.43;;;7.47;;
6513;SDS011;3290;47.716;9.070;2023-10-13T06:17:17;17.80;;;7.30;;
6513;SDS011;3290;47.716;9.070;2023-10-13T06:20:00;34.37;;;8.17;;
6513;SDS011;3290;47.716;9.070;2023-10-13T06:23:01;27.20;;;7.90;;
6513;SDS011;3290;47.716;9.070;2023-10-13T06:25:51;22.10;;;8.37;;
6513;SDS011;3290;47.716;9.070;2023-10-13T06:28:35;28.67;;;9.30;;
6513;SDS011;3290;47.716;9.070;2023-10-13T06:31:07;22.37;;;7.23;;
6513;SDS011;3290;47.716;9.070;2023-10-13T06:33:37;20.43;;;5.97;;
6513;SDS011;3290;47.716;9.070;2023-10-13T06:36:09;17.97;;;6.17;;
6513;SDS011;3290;47.716;9.070;2023-10-13T06:38:35;11.63;;;5.53;;
6513;SDS011;3290;47.716;9.070;2023-10-13T06:41:06;22.70;;;5.83;;
6513;SDS011;3290;47.716;9.070;2023-10-13T06:43:36;16.60;;;5.43;;
6513;SDS011;3290;47.716;9.070;2023-10-13T06:46:10;31.63;;;7.00;;
6513;SDS011;3290;47.716;9.070;2023-10-13T06:48:48;14.40;;;5.97;;
6513;SDS011;3290;47.716;9.070;2023-10-13T06:51:18;10.97;;;5.70;;
6513;SDS011;3290;47.716;9.070;2023-10-13T06:53:50;12.57;;;5.00;;
6513;SDS011;3290;47.716;9.070;2023-10-13T06:56:21;11.13;;;4.50;;
6513;SDS011;3290;47.716;9.070;2023-10-13T06:58:53;12.27;;;4.90;;
6513;SDS011;3290;47.716;9.070;2023-10-13T07:01:27;11.07;;;4.90;;
6513;SDS011;3290;47.716;9.070;2023-10-13T07:03:52;11.77;;;5.70;;
6513;SDS011;3290;47.716;9.070;2023-10-13T07:06:21;9.83;;;4.80;;
6513;SDS011;3290;47.716;9.070;2023-10-13T07:08:47;18.67;;;6.00;;
6513;SDS011;3290;47.716;9.070;2023-10-13T07:11:24;26.50;;;5.43;;
6513;SDS011;3290;47.716;9.070;2023-10-13T07:14:02;24.13;;;5.90;;
6513;SDS011;3290;47.716;9.070;2023-10-13T07:16:42;17.30;;;6.37;;
6513;SDS011;3290;47.716;9.070;2023-10-13T07:19:11;21.17;;;6.60;;
6513;SDS011;3290;47.716;9.070;2023-10-13T07:21:43;12.00;;;5.73;;
6513;SDS011;3290;47.716;9.070;2023-10-13T07:24:11;14.53;;;6.03;;
6513;SDS011;3290;47.716;9.070;2023-10-13T07:26:37;10.77;;;5.20;;
6513;SDS011;3290;47.716;9.070;2023-10-13T07:29:11;12.53;;;5.80;;
6513;SDS011;3290;47.716;9.070;2023-10-13T07:31:37;10.30;;;4.70;;
6513;SDS011;3290;47.716;9.070;2023-10-13T07:34:04;13.80;;;6.37;;
6513;SDS011;3290;47.716;9.070;2023-10-13T07:36:37;9.43;;;5.47;;
6513;SDS011;3290;47.716;9.070;2023-10-13T07:39:08;16.33;;;5.50;;
6513;SDS011;3290;47.716;9.070;2023-10-13T07:41:49;15.13;;;5.70;;
6513;SDS011;3290;47.716;9.070;2023-10-13T07:44:29;9.97;;;5.10;;
6513;SDS011;3290;47.716;9.070;2023-10-13T07:46:58;13.90;;;5.70;;
6513;SDS011;3290;47.716;9.070;2023-10-13T07:49:28;10.30;;;5.13;;
6513;SDS011;3290;47.716;9.070;2023-10-13T07:52:00;13.33;;;5.33;;
6513;SDS011;3290;47.716;9.070;2023-10-13T07:54:41;11.40;;;4.97;;
6513;SDS011;3290;47.716;9.070;2023-10-13T07:57:08;9.50;;;4.37;;
6513;SDS011;3290;47.716;9.070;2023-10-13T07:59:33;10.57;;;5.30;;
6513;SDS011;3290;47.716;9.070;2023-10-13T08:02:00;9.60;;;4.73;;
6513;SDS011;3290;47.716;9.070;2023-10-13T08:04:38;13.60;;;5.90;;
6513;SDS011;3290;47.716;9.070;2023-10-13T08:07:04;13.00;;;5.40;;
6513;SDS011;3290;47.716;9.070;2023-10-13T08:09:41;12.53;;;5.20;;
6513;SDS011;3290;47.716;9.070;2023-10-13T08:12:08;9.40;;;5.20;;
6513;SDS011;3290;47.716;9.070;2023-10-13T08:14:37;15.70;;;5.80;;
6513;SDS011;3290;47.716;9.070;2023-10-13T08:17:05;11.40;;;5.57;;
6513;SDS011;3290;47.716;9.070;2023-10-13T08:19:35;12.30;;;6.30;;
6513;SDS011;3290;47.716;9.070;2023-10-13T08:22:10;10.33;;;5.53;;
6513;SDS011;3290;47.716;9.070;2023-10-13T08:24:45;16.53;;;5.87;;
6513;SDS011;3290;47.716;9.070;2023-10-13T08:27:12;11.50;;;5.50;;
6513;SDS011;3290;47.716;9.070;2023-10-13T08:29:41;17.93;;;5.63;;
6513;SDS011;3290;47.716;9.070;2023-10-13T08:32:19;16.83;;;6.53;;
6513;SDS011;3290;47.716;9.070;2023-10-13T08:35:01;10.83;;;6.10;;
6513;SDS011;3290;47.716;9.070;2023-10-13T08:37:30;9.00;;;5.47;;
6513;SDS011;3290;47.716;9.070;2023-10-13T08:40:22;13.37;;;6.50;;
6513;SDS011;3290;47.716;9.070;2023-10-13T08:43:11;16.63;;;6.40;;
6513;SDS011;3290;47.716;9.070;2023-10-13T08:45:41;18.00;;;6.40;;
6513;SDS011;3290;47.716;9.070;2023-10-13T08:48:08;12.57;;;5.53;;
6513;SDS011;3290;47.716;9.070;2023-10-13T08:50:45;15.77;;;6.00;;
6513;SDS011;3290;47.716;9.070;2023-10-13T08:53:21;10.40;;;5.10;;
6513;SDS011;3290;47.716;9.070;2023-10-13T08:55:58;11.10;;;5.67;;
6513;SDS011;3290;47.716;9.070;2023-10-13T08:58:26;9.47;;;6.00;;
6513;SDS011;3290;47.716;9.070;2023-10-13T09:01:12;12.70;;;5.70;;
6513;SDS011;3290;47.716;9.070;2023-10-13T09:03:38;8.77;;;4.73;;
6513;SDS011;3290;47.716;9.070;2023-10-13T09:06:07;9.03;;;5.20;;
6513;SDS011;3290;47.716;9.070;2023-10-13T09:08:39;15.33;;;4.90;;
6513;SDS011;3290;47.716;9.070;2023-10-13T09:11:31;9.40;;;4.93;;
6513;SDS011;3290;47.716;9.070;2023-10-13T09:14:02;6.70;;;4.50;;
6513;SDS011;3290;47.716;9.070;2023-10-13T09:16:28;9.33;;;5.40;;
6513;SDS011;3290;47.716;9.070;2023-10-13T09:19:06;13.27;;;5.20;;
6513;SDS011;3290;47.716;9.070;2023-10-13T09:21:41;15.20;;;4.73;;
6513;SDS011;3290;47.716;9.070;2023-10-13T09:24:12;9.80;;;5.23;;
6513;SDS011;3290;47.716;9.070;2023-10-13T09:26:43;11.27;;;4.80;;
6513;SDS011;3290;47.716;9.070;2023-10-13T09:29:16;8.03;;;4.87;;
6513;SDS011;3290;47.716;9.070;2023-10-13T09:31:43;7.27;;;4.60;;
6513;SDS011;3290;47.716;9.070;2023-10-13T09:34:10;11.90;;;5.00;;
6513;SDS011;3290;47.716;9.070;2023-10-13T09:36:36;8.73;;;4.77;;
6513;SDS011;3290;47.716;9.070;2023-10-13T09:39:01;9.47;;;4.40;;
6513;SDS011;3290;47.716;9.070;2023-10-13T09:42:00;13.90;;;3.87;;
6513;SDS011;3290;47.716;9.070;2023-10-13T09:44:26;8.47;;;3.53;;
6513;SDS011;3290;47.716;9.070;2023-10-13T09:47:02;11.83;;;4.07;;
6513;SDS011;3290;47.716;9.070;2023-10-13T09:49:43;12.77;;;3.57;;
6513;SDS011;3290;47.716;9.070;2023-10-13T09:52:17;10.03;;;4.17;;
6513;SDS011;3290;47.716;9.070;2023-10-13T09:54:59;7.33;;;3.27;;
6513;SDS011;3290;47.716;9.070;2023-10-13T09:57:34;5.33;;;3.40;;
6513;SDS011;3290;47.716;9.070;2023-10-13T10:00:12;7.43;;;3.40;;
6513;SDS011;3290;47.716;9.070;2023-10-13T10:03:00;7.70;;;3.60;;
6513;SDS011;3290;47.716;9.070;2023-10-13T10:05:41;9.53;;;3.30;;
6513;SDS011;3290;47.716;9.070;2023-10-13T10:08:22;5.30;;;3.03;;
6513;SDS011;3290;47.716;9.070;2023-10-13T10:10:58;12.07;;;3.47;;
6513;SDS011;3290;47.716;9.070;2023-10-13T10:13:53;5.60;;;3.10;;
6513;SDS011;3290;47.716;9.070;2023-10-13T10:16:59;13.73;;;3.60;;
6513;SDS011;3290;47.716;9.070;2023-10-13T10:19:49;7.20;;;3.93;;
6513;SDS011;3290;47.716;9.070;2023-10-13T10:22:32;5.40;;;3.10;;
6513;SDS011;3290;47.716;9.070;2023-10-13T10:25:09;8.13;;;3.47;;
6513;SDS011;3290;47.716;9.070;2023-10-13T10:27:57;6.93;;;3.70;;
6513;SDS011;3290;47.716;9.070;2023-10-13T10:32:56;6.33;;;3.23;;
6513;SDS011;3290;47.716;9.070;2023-10-13T10:35:25;7.17;;;3.73;;
6513;SDS011;3290;47.716;9.070;2023-10-13T10:40:55;8.50;;;3.40;;
6513;SDS011;3290;47.716;9.070;2023-10-13T10:43:26;8.10;;;4.13;;
6513;SDS011;3290;47.716;9.070;2023-10-13T10:45:52;7.70;;;3.47;;
6513;SDS011;3290;47.716;9.070;2023-10-13T10:48:18;6.80;;;2.93;;
6513;SDS011;3290;47.716;9.070;2023-10-13T10:51:05;6.60;;;3.10;;
6513;SDS011;3290;47.716;9.070;2023-10-13T10:53:39;6.10;;;3.40;;
6513;SDS011;3290;47.716;9.070;2023-10-13T10:56:11;4.70;;;3.07;;
6513;SDS011;3290;47.716;9.070;2023-10-13T10:58:48;6.00;;;3.30;;
6513;SDS011;3290;47.716;9.070;2023-10-13T11:01:23;5.17;;;3.30;;
6513;SDS011;3290;47.716;9.070;2023-10-13T11:03:56;9.20;;;3.67;;
6513;SDS011;3290;47.716;9.070;2023-10-13T11:06:23;9.03;;;3.40;;
6513;SDS011;3290;47.716;9.070;2023-10-13T11:09:00;5.83;;;3.30;;
6513;SDS011;3290;47.716;9.070;2023-10-13T11:11:44;8.50;;;3.50;;
6513;SDS011;3290;47.716;9.070;2023-10-13T11:14:21;16.50;;;3.73;;
6513;SDS011;3290;47.716;9.070;2023-10-13T11:16:51;8.90;;;3.53;;
6513;SDS011;3290;47.716;9.070;2023-10-13T11:19:34;5.10;;;3.23;;
6513;SDS011;3290;47.716;9.070;2023-10-13T11:25:03;8.23;;;3.60;;
6513;SDS011;3290;47.716;9.070;2023-10-13T11:27:37;11.80;;;3.70;;
6513;SDS011;3290;47.716;9.070;2023-10-13T11:30:20;12.00;;;3.97;;
6513;SDS011;3290;47.716;9.070;2023-10-13T11:33:05;6.97;;;3.40;;
6513;SDS011;3290;47.716;9.070;2023-10-13T11:35:32;11.03;;;3.53;;
6513;SDS011;3290;47.716;9.070;2023-10-13T11:38:17;7.77;;;3.37;;
6513;SDS011;3290;47.716;9.070;2023-10-13T11:41:13;6.77;;;3.43;;
6513;SDS011;3290;47.716;9.070;2023-10-13T11:46:16;8.07;;;3.60;;
6513;SDS011;3290;47.716;9.070;2023-10-13T11:49:10;11.03;;;4.00;;
6513;SDS011;3290;47.716;9.070;2023-10-13T11:54:15;10.10;;;3.27;;
6513;SDS011;3290;47.716;9.070;2023-10-13T11:56:44;19.37;;;4.10;;
6513;SDS011;3290;47.716;9.070;2023-10-13T11:59:11;8.53;;;3.63;;
6513;SDS011;3290;47.716;9.070;2023-10-13T12:01:43;9.57;;;2.73;;
6513;SDS011;3290;47.716;9.070;2023-10-13T12:04:28;9.03;;;3.53;;
6513;SDS011;3290;47.716;9.070;2023-10-13T12:07:05;4.70;;;2.63;;
6513;SDS011;3290;47.716;9.070;2023-10-13T12:09:49;11.50;;;3.30;;
6513;SDS011;3290;47.716;9.070;2023-10-13T12:12:25;5.83;;;2.90;;
6513;SDS011;3290;47.716;9.070;2023-10-13T12:14:51;5.70;;;2.80;;
6513;SDS011;3290;47.716;9.070;2023-10-13T12:17:18;11.17;;;4.30;;
6513;SDS011;3290;47.716;9.070;2023-10-13T12:19:52;4.80;;;2.77;;
6513;SDS011;3290;47.716;9.070;2023-10-13T12:22:18;7.00;;;3.07;;
6513;SDS011;3290;47.716;9.070;2023-10-13T12:24:52;14.70;;;3.27;;
6513;SDS011;3290;47.716;9.070;2023-10-13T12:27:20;9.33;;;2.30;;
6513;SDS011;3290;47.716;9.070;2023-10-13T12:29:49;6.60;;;2.50;;
6513;SDS011;3290;47.716;9.070;2023-10-13T12:32:17;3.23;;;2.00;;
6513;SDS011;3290;47.716;9.070;2023-10-13T12:34:56;6.50;;;2.70;;
6513;SDS011;3290;47.716;9.070;2023-10-13T12:37:24;8.70;;;2.97;;
6513;SDS011;3290;47.716;9.070;2023-10-13T12:40:15;4.50;;;2.53;;
6513;SDS011;3290;47.716;9.070;2023-10-13T12:43:00;3.50;;;2.37;;
6513;SDS011;3290;47.716;9.070;2023-10-13T12:45:46;5.00;;;2.80;;
6513;SDS011;3290;47.716;9.070;2023-10-13T12:48:31;5.80;;;3.00;;
6513;SDS011;3290;47.716;9.070;2023-10-13T12:51:16;6.97;;;2.67;;
6513;SDS011;3290;47.716;9.070;2023-10-13T12:53:57;8.10;;;3.60;;
6513;SDS011;3290;47.716;9.070;2023-10-13T12:56:48;6.53;;;2.33;;
6513;SDS011;3290;47.716;9.070;2023-10-13T12:59:13;6.97;;;3.27;;
6513;SDS011;3290;47.716;9.070;2023-10-13T13:01:39;7.03;;;3.50;;
6513;SDS011;3290;47.716;9.070;2023-10-13T13:04:11;6.30;;;3.17;;
6513;SDS011;3290;47.716;9.070;2023-10-13T13:06:43;4.37;;;2.83;;
6513;SDS011;3290;47.716;9.070;2023-10-13T13:09:08;5.40;;;2.60;;
6513;SDS011;3290;47.716;9.070;2023-10-13T13:11:35;6.70;;;3.23;;
6513;SDS011;3290;47.716;9.070;2023-10-13T13:14:04;5.70;;;2.60;;
6513;SDS011;3290;47.716;9.070;2023-10-13T13:16:32;12.33;;;2.93;;
6513;SDS011;3290;47.716;9.070;2023-10-13T13:18:58;11.27;;;3.53;;
6513;SDS011;3290;47.716;9.070;2023-10-13T13:21:24;11.40;;;2.87;;
6513;SDS011;3290;47.716;9.070;2023-10-13T13:23:52;6.77;;;2.77;;
6513;SDS011;3290;47.716;9.070;2023-10-13T13:26:21;6.73;;;3.00;;
6513;SDS011;3290;47.716;9.070;2023-10-13T13:28:47;5.90;;;3.50;;
6513;SDS011;3290;47.716;9.070;2023-10-13T13:31:20;11.37;;;4.00;;
6513;SDS011;3290;47.716;9.070;2023-10-13T13:33:54;6.60;;;3.20;;
6513;SDS011;3290;47.716;9.070;2023-10-13T13:36:20;7.00;;;2.97;;
6513;SDS011;3290;47.716;9.070;2023-10-13T13:38:47;11.67;;;5.70;;
6513;SDS011;3290;47.716;9.070;2023-10-13T13:41:16;14.53;;;4.63;;
6513;SDS011;3290;47.716;9.070;2023-10-13T13:43:49;11.27;;;4.80;;
6513;SDS011;3290;47.716;9.070;2023-10-13T13:46:15;6.93;;;4.40;;
6513;SDS011;3290;47.716;9.070;2023-10-13T13:48:52;7.07;;;3.23;;
6513;SDS011;3290;47.716;9.070;2023-10-13T13:51:24;11.37;;;3.03;;
6513;SDS011;3290;47.716;9.070;2023-10-13T13:53:53;6.73;;;3.40;;
6513;SDS011;3290;47.716;9.070;2023-10-13T13:56:20;4.57;;;2.70;;
6513;SDS011;3290;47.716;9.070;2023-10-13T13:58:49;9.73;;;3.37;;
6513;SDS011;3290;47.716;9.070;2023-10-13T14:01:15;5.07;;;2.40;;
6513;SDS011;3290;47.716;9.070;2023-10-13T14:03:44;8.93;;;3.10;;
6513;SDS011;3290;47.716;9.070;2023-10-13T14:06:14;6.70;;;2.73;;
6513;SDS011;3290;47.716;9.070;2023-10-13T14:08:46;7.00;;;2.53;;
6513;SDS011;3290;47.716;9.070;2023-10-13T14:11:35;5.80;;;3.23;;
6513;SDS011;3290;47.716;9.070;2023-10-13T14:14:04;6.10;;;2.73;;
6513;SDS011;3290;47.716;9.070;2023-10-13T14:16:53;4.37;;;2.60;;
6513;SDS011;3290;47.716;9.070;2023-10-13T14:19:27;4.60;;;2.63;;
6513;SDS011;3290;47.716;9.070;2023-10-13T14:21:55;7.30;;;2.43;;
6513;SDS011;3290;47.716;9.070;2023-10-13T14:24:22;8.37;;;2.57;;
6513;SDS011;3290;47.716;9.070;2023-10-13T14:26:58;10.97;;;3.67;;
6513;SDS011;3290;47.716;9.070;2023-10-13T14:29:32;10.57;;;2.50;;
6513;SDS011;3290;47.716;9.070;2023-10-13T14:31:58;6.60;;;2.80;;
6513;SDS011;3290;47.716;9.070;2023-10-13T14:34:24;5.60;;;2.83;;
6513;SDS011;3290;47.716;9.070;2023-10-13T14:36:51;5.33;;;2.70;;
6513;SDS011;3290;47.716;9.070;2023-10-13T14:39:17;5.60;;;2.13;;
6513;SDS011;3290;47.716;9.070;2023-10-13T14:41:45;13.60;;;4.20;;
6513;SDS011;3290;47.716;9.070;2023-10-13T14:44:12;7.53;;;2.63;;
6513;SDS011;3290;47.716;9.070;2023-10-13T14:46:38;3.13;;;1.97;;
6513;SDS011;3290;47.716;9.070;2023-10-13T14:49:04;3.50;;;2.43;;
6513;SDS011;3290;47.716;9.070;2023-10-13T14:51:30;4.60;;;2.80;;
6513;SDS011;3290;47.716;9.070;2023-10-13T14:53:57;6.57;;;2.70;;
6513;SDS011;3290;47.716;9.070;2023-10-13T14:56:24;10.47;;;2.47;;
6513;SDS011;3290;47.716;9.070;2023-10-13T14:58:51;6.70;;;2.40;;
6513;SDS011;3290;47.716;9.070;2023-10-13T15:01:18;3.73;;;2.33;;
6513;SDS011;3290;47.716;9.070;2023-10-13T15:03:48;5.13;;;2.83;;
6513;SDS011;3290;47.716;9.070;2023-10-13T15:06:22;3.80;;;2.30;;
6513;SDS011;3290;47.716;9.070;2023-10-13T15:08:54;4.67;;;2.30;;
6513;SDS011;3290;47.716;9.070;2023-10-13T15:11:21;5.00;;;2.40;;
6513;SDS011;3290;47.716;9.070;2023-10-13T15:13:51;7.27;;;3.07;;
6513;SDS011;3290;47.716;9.070;2023-10-13T15:16:18;5.80;;;2.37;;
6513;SDS011;3290;47.716;9.070;2023-10-13T15:18:45;5.97;;;2.47;;
6513;SDS011;3290;47.716;9.070;2023-10-13T15:21:11;15.80;;;2.57;;
6513;SDS011;3290;47.716;9.070;2023-10-13T15:23:44;4.63;;;2.37;;
6513;SDS011;3290;47.716;9.070;2023-10-13T15:26:10;5.60;;;2.83;;
6513;SDS011;3290;47.716;9.070;2023-10-13T15:28:38;14.00;;;3.20;;
6513;SDS011;3290;47.716;9.070;2023-10-13T15:31:13;10.67;;;2.50;;
6513;SDS011;3290;47.716;9.070;2023-10-13T15:33:52;11.10;;;2.70;;
6513;SDS011;3290;47.716;9.070;2023-10-13T15:36:21;5.97;;;2.37;;
6513;SDS011;3290;47.716;9.070;2023-10-13T15:38:48;5.43;;;2.60;;
6513;SDS011;3290;47.716;9.070;2023-10-13T15:43:52;5.47;;;2.73;;
6513;SDS011;3290;47.716;9.070;2023-10-13T15:46:19;14.33;;;2.67;;
6513;SDS011;3290;47.716;9.070;2023-10-13T15:48:49;8.80;;;3.60;;
6513;SDS011;3290;47.716;9.070;2023-10-13T15:51:16;7.50;;;3.20;;
6513;SDS011;3290;47.716;9.070;2023-10-13T15:53:41;8.33;;;2.63;;
6513;SDS011;3290;47.716;9.070;2023-10-13T15:56:08;7.30;;;3.03;;
6513;SDS011;3290;47.716;9.070;2023-10-13T15:58:43;6.53;;;3.03;;
6513;SDS011;3290;47.716;9.070;2023-10-13T16:01:09;8.80;;;2.63;;
6513;SDS011;3290;47.716;9.070;2023-10-13T16:03:41;5.90;;;3.23;;
6513;SDS011;3290;47.716;9.070;2023-10-13T16:06:09;14.43;;;2.90;;